Flight Track Log - Related Links

Times and Time Zones

All times are in EDT time to prevent confusion due to time zone crossing. See the LAN2531 flight status page for this flight to view local times or setup timezone preferences in your user account.

Time Position Orientation Groundspeed Altitude Reporting Facility
EDT Latitude Longitude Course Direction KTS MPH feet Rate Location/Type
Mon 12:16:16 AM 40.6410 -73.8000 143° Southeast 155 178  Level FlightAware ADS-B
Mon 12:16:41 AM 40.6310 -73.7780 121° Southeast 187 215 300 1,317 Climbing FlightAware ADS-B
Mon 12:16:57 AM 40.6230 -73.7610 122° Southeast 193 222 900 2,069 Climbing FlightAware ADS-B
Mon 12:17:10 AM 40.6160 -73.7500 130° Southeast 201 231 1,300 1,765 Climbing FlightAware ADS-B
Mon 12:17:14 AM 40.6130 -73.7480 153° Southeast 208 239 1,400 1,500 Climbing FlightAware ADS-B
Mon 12:17:38 AM 40.5890 -73.7340 156° South 237 273 2,000 1,773 Climbing FlightAware ADS-B
Mon 12:17:58 AM 40.5690 -73.7220 155° Southeast 256 295 2,700 2,250 Climbing FlightAware ADS-B
Mon 12:18:18 AM 40.5450 -73.7100 159° South 273 314 3,500 2,667 Climbing FlightAware ADS-B
Mon 12:18:34 AM 40.5260 -73.6990 156° South 278 320 4,300 3,273 Climbing FlightAware ADS-B
Mon 12:18:40 AM 40.5190 -73.6951 157° South 280 322 4,700 3,333 Climbing FlightAware ADS-B
Mon 12:18:43 AM 40.5157 -73.6927 151° Southeast 281 323 4,800 2,571 Climbing FlightAware ADS-B
Mon 12:18:47 AM 40.5114 -73.6885 143° Southeast 283 326 5,000 3,429 Climbing FlightAware ADS-B
Mon 12:18:50 AM 40.5086 -73.6851 137° Southeast 284 327 5,200 2,667 Climbing FlightAware ADS-B
Mon 12:18:56 AM 40.5036 -73.6767 128° Southeast 285 328 5,400 2,667 Climbing FlightAware ADS-B
Mon 12:18:59 AM 40.5017 -73.6724 120° Southeast 286 329 5,600 3,000 Climbing FlightAware ADS-B
Mon 12:19:12 AM 40.4940 -73.6523 117° Southeast 291 335 6,200 2,308 Climbing FlightAware ADS-B
Mon 12:19:25 AM 40.4859 -73.6314 117° Southeast 291 335 6,600 1,241 Climbing FlightAware ADS-B
Mon 12:19:41 AM 40.4759 -73.6056 117° Southeast 292 336 6,800 1,091 Climbing FlightAware ADS-B
Mon 12:19:47 AM 40.4725 -73.5970 117° Southeast 293 337 7,000 1,800 Climbing FlightAware ADS-B
Mon 12:19:51 AM 40.4696 -73.5908 122° Southeast 294 338 7,100 2,571 Climbing FlightAware ADS-B
Mon 12:19:54 AM 40.4672 -73.5865 126° Southeast 295 339 7,300 2,571 Climbing FlightAware ADS-B
Mon 12:19:58 AM 40.4638 -73.5809 129° Southeast 295 339 7,400 2,667 Climbing FlightAware ADS-B
Mon 12:20:03 AM 40.4592 -73.5748 135° Southeast 296 341 7,700 3,600 Climbing FlightAware ADS-B
Mon 12:20:08 AM 40.4534 -73.5681 139° Southeast 296 341 8,000 3,500 Climbing FlightAware ADS-B
Mon 12:20:15 AM 40.4453 -73.5604 144° Southeast 297 342 8,400 3,273 Climbing FlightAware ADS-B
Mon 12:20:19 AM 40.4409 -73.5567 147° Southeast 297 342 8,600 3,429 Climbing FlightAware ADS-B
Mon 12:20:29 AM 40.4299 -73.5480 149° Southeast 295 339 9,200 3,120 Climbing FlightAware ADS-B
Mon 12:20:44 AM 40.4124 -73.5336 148° Southeast 297 342 9,900 1,867 Climbing FlightAware ADS-B
Mon 12:21:14 AM 40.3748 -73.5043 149° Southeast 332 382 10,600 1,200 Climbing FlightAware ADS-B
Mon 12:21:39 AM 40.3401 -73.4774 149° Southeast 365 420 11,000 1,029 Climbing FlightAware ADS-B
Mon 12:21:49 AM 40.3246 -73.4680 155° Southeast 373 429 11,200 1,263 Climbing FlightAware ADS-B
Mon 12:21:58 AM 40.3094 -73.4629 166° South 379 436 11,400 1,846 Climbing FlightAware ADS-B
Mon 12:22:28 AM 40.2557 -73.4558 174° South 395 455 12,400 2,348 Climbing FlightAware ADS-B
Mon 12:22:44 AM 40.2261 -73.4520 174° South 399 459 13,200 2,750 Climbing FlightAware ADS-B
Mon 12:22:52 AM 40.2117 -73.4515 178° South 397 457 13,500 2,800 Climbing FlightAware ADS-B
Mon 12:22:59 AM 40.1987 -73.4527 184° South 394 453 13,900 3,818 Climbing FlightAware ADS-B
Mon 12:23:03 AM 40.1908 -73.4542 188° South 393 452 14,200 3,818 Climbing FlightAware ADS-B
Mon 12:23:21 AM 40.1607 -73.4656 196° South 379 436 15,300 2,903 Climbing FlightAware ADS-B
Mon 12:23:34 AM 40.1404 -73.4781 205° Southwest 384 442 15,700 1,957 Climbing FlightAware ADS-B
Mon 12:24:07 AM 40.0867 -73.5177 209° Southwest 399 459 16,800 1,969 Climbing FlightAware ADS-B
Mon 12:24:38 AM 40.0378 -73.5548 210° Southwest 411 473 17,800 2,066 Climbing FlightAware ADS-B
Mon 12:25:08 AM 39.9881 -73.5924 210° Southwest 416 479 18,900 2,200 Climbing FlightAware ADS-B
Mon 12:25:38 AM 39.9375 -73.6301 210° Southwest 421 484 20,000 2,156 Climbing FlightAware ADS-B
Mon 12:26:12 AM 39.8798 -73.6731 210° Southwest 426 490 21,200 2,215 Climbing FlightAware ADS-B
Mon 12:26:43 AM 39.8275 -73.7118 210° Southwest 425 489 22,400 1,770 Climbing FlightAware ADS-B
Mon 12:27:13 AM 39.7752 -73.7504 210° Southwest 435 501 23,000 1,100 Climbing FlightAware ADS-B
Mon 12:27:43 AM 39.7218 -73.7900 210° Southwest 439 505 23,500 1,500 Climbing FlightAware ADS-B
Mon 12:28:13 AM 39.6689 -73.8307 211° Southwest 441 507 24,500 2,066 Climbing FlightAware ADS-B
Mon 12:28:44 AM 39.6156 -73.8720 211° Southwest 439 505 25,600 1,967 Climbing FlightAware ADS-B
Mon 12:29:14 AM 39.5630 -73.9127 211° Southwest 442 509 26,500 1,900 Climbing FlightAware ADS-B
Mon 12:29:44 AM 39.5098 -73.9534 211° Southwest 440 506 27,500 2,164 Climbing FlightAware ADS-B
Mon 12:30:15 AM 39.4562 -73.9944 211° Southwest 431 496 28,700 2,226 Climbing FlightAware ADS-B
Mon 12:30:46 AM 39.4043 -74.0339 210° Southwest 426 490 29,800 1,967 Climbing FlightAware ADS-B
Mon 12:31:16 AM 39.3534 -74.0727 211° Southwest 423 487 30,700 1,672 Climbing FlightAware ADS-B
Mon 12:31:47 AM 39.3008 -74.1126 210° Southwest 422 486 31,500 1,238 Climbing FlightAware ADS-B
Mon 12:32:19 AM 39.2473 -74.1533 211° Southwest 422 486 32,000 677 Climbing FlightAware ADS-B
Mon 12:32:49 AM 39.1959 -74.1923 210° Southwest 425 489 32,200 1,100 Climbing FlightAware ADS-B
Mon 12:33:19 AM 39.1451 -74.2306 210° Southwest 418 481 33,100 1,500 Climbing FlightAware ADS-B
Mon 12:33:49 AM 39.0952 -74.2683 210° Southwest 417 480 33,700 885 Climbing FlightAware ADS-B
Mon 12:34:20 AM 39.0446 -74.3064 210° Southwest 417 480 34,000 295 Climbing FlightAware ADS-B
Mon 12:34:50 AM 38.9947 -74.3441 210° Southwest 418 481 34,000  Level FlightAware ADS-B
Mon 12:35:34 AM 38.9198 -74.4002 210° Southwest 420 483 34,000  Level FlightAware ADS-B
Mon 12:36:05 AM 38.8690 -74.4384 210° Southwest 421 484 34,000  Level FlightAware ADS-B
Mon 12:36:35 AM 38.8186 -74.4761 210° Southwest 421 484 34,000  Level FlightAware ADS-B
Mon 12:37:05 AM 38.7676 -74.5142 210° Southwest 422 486 34,000  Level FlightAware ADS-B
Mon 12:37:36 AM 38.7151 -74.5535 210° Southwest 421 484 34,000  Level FlightAware ADS-B
Mon 12:38:07 AM 38.6640 -74.5914 210° Southwest 421 484 34,000  Level FlightAware ADS-B
Mon 12:38:35 AM 38.6169 -74.6264 210° Southwest 421 484 34,000  Level FlightAware ADS-B
Mon 12:39:06 AM 38.5649 -74.6649 210° Southwest 421 484 34,000  Level FlightAware ADS-B
Mon 12:39:43 AM 38.5014 -74.7120 210° Southwest 421 484 34,000  Level FlightAware ADS-B
Mon 12:40:14 AM 38.4504 -74.7498 210° Southwest 420 483 34,000  Level FlightAware ADS-B
Mon 12:40:44 AM 38.3998 -74.7871 210° Southwest 421 484 34,000  Level FlightAware ADS-B
Mon 12:41:14 AM 38.3485 -74.8248 210° Southwest 422 486 34,000  Level FlightAware ADS-B
Mon 12:41:52 AM 38.2847 -74.8718 210° Southwest 422 486 34,000  Level FlightAware ADS-B
Mon 12:42:23 AM 38.2327 -74.9100 210° Southwest 422 486 34,000  Level FlightAware ADS-B
Mon 12:42:53 AM 38.1811 -74.9478 210° Southwest 422 486 34,000  Level FlightAware ADS-B
Mon 12:43:23 AM 38.1306 -74.9847 210° Southwest 422 486 34,000  Level FlightAware ADS-B
Mon 12:43:53 AM 38.0798 -75.0219 210° Southwest 422 486 34,000  Level FlightAware ADS-B
Mon 12:44:26 AM 38.0241 -75.0626 210° Southwest 421 484 34,000  Level FlightAware ADS-B
Mon 12:45:21 AM 37.9340 -75.1280 210° Southwest 413 475 34,000  Level FlightAware ADS-B
Mon 12:45:55 AM 37.8770 -75.1700 210° Southwest 413 475 34,000  Level FlightAware ADS-B
Mon 12:46:20 AM 37.8319 -75.2023 209° Southwest 421 484 34,000  Level FlightAware ADS-B
Mon 12:46:51 AM 37.7805 -75.2393 210° Southwest 421 484 34,000  Level FlightAware ADS-B
Mon 12:47:19 AM 37.7331 -75.2735 210° Southwest 422 486 34,000  Level FlightAware ADS-B
Mon 12:47:49 AM 37.6818 -75.3105 210° Southwest 424 488 34,000  Level FlightAware ADS-B
Mon 12:47:58 AM 37.6666 -75.3208 208° Southwest 426 490 34,000  Level FlightAware ADS-B
Mon 12:48:08 AM 37.6478 -75.3299 201° Southwest 430 495 34,000  Level FlightAware ADS-B
Mon 12:48:38 AM 37.5903 -75.3529 198° South 430 495 34,000  Level FlightAware ADS-B
Mon 12:49:14 AM 37.5220 -75.3825 199° South 430 495 34,000  Level FlightAware ADS-B
Mon 12:49:51 AM 37.4570 -75.4130 200° South 428 493 34,000  Level FlightAware ADS-B
Mon 12:50:19 AM 37.4010 -75.4391 200° South 430 495 34,000  Level FlightAware ADS-B
Mon 12:50:48 AM 37.3461 -75.4620 198° South 430 495 34,000  Level FlightAware ADS-B
Mon 12:51:21 AM 37.2837 -75.4879 198° South 431 496 34,000  Level FlightAware ADS-B
Mon 12:51:52 AM 37.2266 -75.5114 198° South 431 496 34,000  Level FlightAware ADS-B
Mon 12:52:22 AM 37.1690 -75.5353 198° South 431 496 34,000  Level FlightAware ADS-B
Mon 12:53:06 AM 37.1000 -75.5640 198° South 423 487 34,000  Level FlightAware ADS-B
Mon 12:53:14 AM 37.0705 -75.5761 198° South 431 496 34,000  Level FlightAware ADS-B
Mon 12:53:45 AM 37.0119 -75.6004 198° South 431 496 34,000  Level FlightAware ADS-B
Mon 12:54:34 AM 36.9201 -75.6381 198° South 430 495 34,000  Level FlightAware ADS-B
Mon 12:55:04 AM 36.8627 -75.6616 198° South 431 496 34,000  Level FlightAware ADS-B
Mon 12:55:41 AM 36.7923 -75.6905 198° South 432 497 34,000  Level FlightAware ADS-B
Mon 12:56:13 AM 36.7318 -75.7153 198° South 432 497 34,000  Level FlightAware ADS-B
Mon 12:57:27 AM 36.5960 -75.7700 198° South 425 489 34,000  Level FlightAware ADS-B
Mon 12:58:25 AM 36.4960 -75.8110 198° South 425 489 34,000  Level FlightAware ADS-B
Mon 12:58:56 AM 36.4240 -75.8410 199° South 425 489 34,000  Level FlightAware ADS-B
Mon 12:59:36 AM 36.3510 -75.8700 198° South 426 490 34,000  Level FlightAware ADS-B
Mon 01:00:17 AM 36.2860 -75.8960 198° South 426 490 34,000  Level FlightAware ADS-B
Mon 01:00:53 AM 36.2290 -75.9190 198° South 426 490 34,000  Level FlightAware ADS-B
Mon 01:01:28 AM 36.1350 -75.9570 198° South 427 491 34,000  Level FlightAware ADS-B
Mon 01:02:07 AM 36.0720 -75.9820 198° South 427 491 34,000  Level FlightAware ADS-B
Mon 01:02:43 AM 36.0150 -76.0050 198° South 427 491 34,000  Level FlightAware ADS-B
Mon 01:03:20 AM 35.9200 -76.0430 198° South 924 1063 34,000  Level FlightAware ADS-B
Mon 01:04:07 AM 35.8294 -76.0789 198° South 440 506 34,000  Level Washington Center
Mon 01:05:07 AM 35.7147 -76.1217 197° South 440 506 34,000  Level Washington Center
Mon 01:06:07 AM 35.5975 -76.1694 198° South 445 512 34,000  Level Washington Center
Mon 01:07:07 AM 35.4806 -76.2144 197° South 445 512 34,000  Level Washington Center
Mon 01:08:07 AM 35.3656 -76.2619 199° South 445 512 34,000  Level Washington Center
Mon 01:09:09 AM 35.2483 -76.3042 196° South 445 512 34,000  Level Washington Center
Mon 01:10:07 AM 35.1311 -76.3514 198° South 445 512 34,000  Level Washington Center
Mon 01:11:09 AM 35.0267 -76.3961 199° South 445 512 34,000  Level Washington Center
Mon 01:12:07 AM 34.9094 -76.4431 198° South 445 512 34,000  Level Washington Center
Mon 01:13:07 AM 34.7922 -76.4875 197° South 445 512 34,000  Level Washington Center
Mon 01:14:07 AM 34.6772 -76.5317 198° South 445 512 34,000  Level Washington Center
Mon 01:15:09 AM 34.5558 -76.5756 197° South 445 512 34,000  Level Washington Center
Mon 01:16:07 AM 34.4408 -76.6222 199° South 445 512 34,000  Level Washington Center
Mon 01:17:07 AM 34.3233 -76.6658 197° South 445 512 34,000  Level Washington Center
Mon 01:18:07 AM 34.2083 -76.7097 198° South 445 512 34,000  Level Washington Center
Mon 01:19:09 AM 34.0889 -76.7556 198° South 445 512 34,000  Level Washington Center
Mon 01:20:07 AM 33.9739 -76.7992 197° South 445 512 34,000  Level Washington Center
Mon 01:21:07 AM 33.8564 -76.8450 198° South 445 512 34,000  Level Washington Center
Mon 01:22:42 AM 33.6594 -76.9169 197° South 456 525 34,000  Level Jacksonville Center
Mon 01:23:42 AM 33.5425 -76.9622 198° South 449 517 34,000  Level Jacksonville Center
Mon 01:24:42 AM 33.4258 -77.0072 198° South 449 517 34,000  Level Jacksonville Center
Mon 01:25:42 AM 33.3047 -77.0503 197° South 449 517 34,000  Level Jacksonville Center
Mon 01:26:42 AM 33.1858 -77.0950 197° South 449 517 34,000  Level Jacksonville Center
Mon 01:27:42 AM 33.0647 -77.1425 198° South 449 517 34,000  Level Jacksonville Center
Mon 01:28:42 AM 32.9456 -77.1825 196° South 449 517 34,000  Level Jacksonville Center
Mon 01:29:42 AM 32.8222 -77.2225 195° South 454 522 34,000  Level Jacksonville Center
Mon 01:30:42 AM 32.7003 -77.2497 191° South 454 522 34,000  Level Jacksonville Center
Mon 01:31:42 AM 32.5783 -77.2772 191° South 449 517 34,000  Level Jacksonville Center
Mon 01:32:42 AM 32.4544 -77.3044 191° South 449 517 34,000  Level Jacksonville Center
Mon 01:33:42 AM 32.3303 -77.3317 190° South 449 517 34,000  Level Jacksonville Center
Mon 01:34:42 AM 32.2064 -77.3589 191° South 449 517 34,000  Level Jacksonville Center
Mon 01:35:42 AM 32.0825 -77.3933 193° South 449 517 34,000  Level Jacksonville Center
Mon 01:36:42 AM 31.9606 -77.4153 189° South 454 522 34,000  Level Jacksonville Center
Mon 01:37:42 AM 31.8347 -77.4497 193° South 454 522 34,000  Level Jacksonville Center
Mon 01:38:42 AM 31.7122 -77.4692 188° South 454 522 34,000  Level Jacksonville Center
Mon 01:39:42 AM 31.5881 -77.4933 189° South 460 529 34,000  Level Jacksonville Center
Mon 01:40:42 AM 31.4639 -77.5200 190° South 460 529 34,000  Level Jacksonville Center
Mon 01:41:42 AM 31.3381 -77.5542 193° South 465 535 34,000  Level Jacksonville Center
Mon 01:42:42 AM 31.2139 -77.5781 189° South 465 535 34,000  Level Jacksonville Center
Mon 01:43:42 AM 31.0878 -77.6097 192° South 465 535 34,000  Level Jacksonville Center
Mon 01:44:42 AM 30.9617 -77.6336 189° South 477 549 34,000  Level Jacksonville Center
Mon 01:45:42 AM 30.8372 -77.6550 188° South 464 534 34,000  Level Jacksonville Center
Mon 01:46:42 AM 30.7111 -77.6861 192° South 467 537 34,000  Level Jacksonville Center
Mon 01:49:12 AM 30.4025 -77.7600 192° South 467 537 34,000  Level Miami Center
Mon 01:50:12 AM 30.2606 -77.7900 190° South 476 548 34,000  Level Miami Center
Mon 01:51:13 AM 30.1394 -77.8225 193° South 471 542 34,000  Level Miami Center
Mon 01:52:12 AM 30.0100 -77.8478 190° South 465 535 34,000  Level Miami Center
Mon 01:53:12 AM 29.8889 -77.8778 192° South 470 541 34,000  Level Miami Center
Mon 01:54:12 AM 29.7719 -77.9100 193° South 455 524 34,000  Level Miami Center
Mon 01:55:12 AM 29.6342 -77.9278 186° South 476 548 34,000  Level Miami Center
Mon 01:56:12 AM 29.5108 -77.9578 192° South 476 548 34,000  Level Miami Center
Mon 01:57:12 AM 29.3833 -77.9803 189° South 462 532 34,000  Level Miami Center
Mon 01:58:12 AM 29.2539 -78.0075 190° South 462 532 34,000  Level Miami Center
Mon 01:59:14 AM 29.1369 -78.0372 193° South 460 529 34,000  Level Miami Center
Mon 02:04:56 AM 28.4010 -78.1870 193° South 465 535 34,000  Level FlightAware ADS-B
Mon 02:05:29 AM 28.3410 -78.1990 190° South 465 535 34,000  Level FlightAware ADS-B
Mon 02:06:07 AM 28.2510 -78.2190 191° South 465 535 34,000  Level FlightAware ADS-B
Mon 02:06:49 AM 28.1720 -78.2350 190° South 465 535 34,000  Level FlightAware ADS-B
Mon 02:07:23 AM 28.0900 -78.2520 190° South 466 536 34,000  Level FlightAware ADS-B
Mon 02:08:09 AM 28.0010 -78.2700 190° South 466 536 34,000  Level FlightAware ADS-B
Mon 02:08:35 AM 27.9370 -78.2840 191° South 466 536 34,000  Level FlightAware ADS-B
Mon 02:09:16 AM 27.8470 -78.3020 190° South 467 537 34,000  Level FlightAware ADS-B
Mon 02:10:09 AM 27.7440 -78.3230 190° South 467 537 34,000  Level FlightAware ADS-B
Mon 02:10:48 AM 27.6530 -78.3420 190° South 467 537 34,000  Level FlightAware ADS-B
Mon 02:11:23 AM 27.5930 -78.3550 191° South 467 537 34,000  Level FlightAware ADS-B
Mon 02:12:09 AM 27.4850 -78.3770 190° South 459 528 34,000  Level FlightAware ADS-B
Mon 02:12:53 AM 27.4110 -78.3910 190° South 459 528 34,000  Level FlightAware ADS-B
Mon 02:13:33 AM 27.3030 -78.4140 191° South 459 528 34,000  Level FlightAware ADS-B
Mon 02:14:08 AM 27.2260 -78.4300 190° South 459 528 34,000  Level FlightAware ADS-B
Mon 02:14:44 AM 27.1510 -78.4450 190° South 460 529 34,000  Level FlightAware ADS-B
Mon 02:15:21 AM 27.0700 -78.4610 190° South 469 540 34,000  Level FlightAware ADS-B
Mon 02:15:54 AM 26.9990 -78.4760 191° South 471 542 34,000  Level FlightAware ADS-B
Mon 02:16:30 AM 26.9210 -78.4920 190° South 472 543 34,000  Level FlightAware ADS-B
Mon 02:17:06 AM 26.8440 -78.5070 190° South 473 544 34,000  Level FlightAware ADS-B
Mon 02:17:41 AM 26.7690 -78.5230 191° South 473 544 34,000  Level FlightAware ADS-B
Mon 02:18:12 AM 26.7010 -78.5360 190° South 474 545 34,000  Level FlightAware ADS-B
Mon 02:18:50 AM 26.6180 -78.5530 190° South 476 548 34,000  Level FlightAware ADS-B
Mon 02:19:27 AM 26.5390 -78.5690 190° South 476 548 34,000  Level FlightAware ADS-B
Mon 02:20:02 AM 26.4620 -78.5850 191° South 477 549 34,000  Level FlightAware ADS-B
Mon 02:20:42 AM 26.3770 -78.6020 190° South 471 542 34,000  Level FlightAware ADS-B
Mon 02:21:17 AM 26.3050 -78.6160 190° South 471 542 34,000  Level FlightAware ADS-B
Mon 02:22:00 AM 26.2040 -78.6360 190° South 479 551 34,000  Level FlightAware ADS-B
Mon 02:22:35 AM 26.1290 -78.6510 190° South 480 552 34,000  Level FlightAware ADS-B
Mon 02:23:11 AM 26.0490 -78.6670 190° South 480 552 34,000  Level FlightAware ADS-B
Mon 02:23:41 AM 25.9840 -78.6800 190° South 472 543 34,000  Level FlightAware ADS-B
Mon 02:24:17 AM 25.9060 -78.6960 190° South 473 544 34,000  Level FlightAware ADS-B
Mon 02:24:56 AM 25.8190 -78.7130 190° South 473 544 34,000 640 Level FlightAware ADS-B
Mon 02:25:32 AM 25.7420 -78.7290 191° South 470 541 34,800 923 Climbing FlightAware ADS-B
Mon 02:26:01 AM 25.6780 -78.7410 190° South 477 549 35,000 185 Climbing FlightAware ADS-B
Mon 02:26:37 AM 25.6000 -78.7570 190° South 472 543 35,000  Level FlightAware ADS-B
Mon 02:27:16 AM 25.5160 -78.7730 190° South 461 531 35,000  Level FlightAware ADS-B
Mon 02:27:42 AM 25.4630 -78.7840 191° South 460 529 35,000  Level FlightAware ADS-B
Mon 02:28:24 AM 25.3750 -78.8010 190° South 459 528 35,000  Level FlightAware ADS-B
Mon 02:29:02 AM 25.2890 -78.8180 190° South 458 527 35,000  Level FlightAware ADS-B
Mon 02:29:32 AM 25.2300 -78.8300 190° South 458 527 35,000  Level FlightAware ADS-B
Mon 02:30:08 AM 25.1500 -78.8460 190° South 457 526 35,000  Level FlightAware ADS-B
Mon 02:30:42 AM 25.0840 -78.8580 189° South 456 525 35,000  Level FlightAware ADS-B
Mon 02:31:18 AM 25.0020 -78.8750 191° South 455 524 35,000  Level FlightAware ADS-B
Mon 02:31:53 AM 24.9280 -78.8890 190° South 455 524 35,000  Level FlightAware ADS-B
Mon 02:32:29 AM 24.8530 -78.9040 190° South 456 525 35,000  Level FlightAware ADS-B
Mon 02:33:02 AM 24.7820 -78.9180 190° South 456 525 35,000  Level FlightAware ADS-B
Mon 02:33:38 AM 24.7040 -78.9330 190° South 456 525 35,000  Level FlightAware ADS-B
Mon 02:34:13 AM 24.6390 -78.9470 191° South 465 535 35,000  Level FlightAware ADS-B
Mon 02:34:44 AM 24.5680 -78.9710 197° South 466 536 35,000  Level FlightAware ADS-B
Mon 02:35:24 AM 24.4910 -79.0010 200° South 459 528 35,000  Level FlightAware ADS-B
Mon 02:35:54 AM 24.4360 -79.0230 200° South 459 528 35,000  Level FlightAware ADS-B
Mon 02:36:34 AM 24.3460 -79.0640 203° Southwest 468 539 35,000  Level FlightAware ADS-B
Mon 02:37:09 AM 24.2770 -79.1040 208° Southwest 468 539 35,000  Level FlightAware ADS-B
Mon 02:37:45 AM 24.2110 -79.1350 203° Southwest 467 537 35,000  Level FlightAware ADS-B
Mon 02:38:19 AM 24.1430 -79.1570 196° South 467 537 35,000  Level FlightAware ADS-B
Mon 02:38:55 AM 24.0620 -79.1740 191° South 467 537 35,000  Level FlightAware ADS-B
Mon 02:39:33 AM 23.9930 -79.1830 187° South 467 537 35,000  Level FlightAware ADS-B
Mon 02:40:10 AM 23.9020 -79.1810 179° South 468 539 35,000  Level FlightAware ADS-B
Mon 02:40:50 AM 23.8290 -79.1790 179° South 468 539 35,000  Level FlightAware ADS-B
Mon 02:41:27 AM 23.7610 -79.1780 179° South 468 539 35,000  Level FlightAware ADS-B
Mon 02:42:03 AM 23.6940 -79.1770 179° South 468 539 35,000  Level FlightAware ADS-B
Mon 02:42:39 AM 23.6280 -79.1760 179° South 468 539 35,000  Level FlightAware ADS-B
Mon 02:43:15 AM 23.5620 -79.1740 178° South 468 539 35,000  Level FlightAware ADS-B
Mon 02:43:51 AM 23.4960 -79.1730 179° South 468 539 35,000  Level FlightAware ADS-B
Mon 02:44:27 AM 23.4290 -79.1720 179° South 468 539 35,000  Level FlightAware ADS-B
Mon 02:45:03 AM 23.3630 -79.1710 179° South 468 539 35,000  Level FlightAware ADS-B
Mon 02:45:39 AM 23.2970 -79.1690 178° South 468 539 35,000  Level FlightAware ADS-B
Mon 02:46:15 AM 23.2310 -79.1680 179° South 468 539 35,000  Level FlightAware ADS-B
Mon 02:46:51 AM 23.1640 -79.1670 179° South 468 539 35,000  Level FlightAware ADS-B
Mon 02:47:27 AM 23.0980 -79.1660 179° South 468 539 35,000  Level FlightAware ADS-B
Mon 02:48:03 AM 23.0320 -79.1640 178° South 468 539 35,000  Level FlightAware ADS-B
Mon 02:48:39 AM 22.9660 -79.1630 179° South 468 539 35,000  Level FlightAware ADS-B
Mon 02:49:15 AM 22.8990 -79.1620 179° South 468 539 35,000  Level FlightAware ADS-B
Mon 02:49:52 AM 22.8310 -79.1610 179° South 468 539 35,000  Level FlightAware ADS-B
Mon 02:52:00 AM 22.5620 -79.1075 182° South  Level FlightAware Approximate
Mon 02:53:00 AM 22.4365 -79.1125 182° South  Level FlightAware Approximate
Mon 02:54:00 AM 22.3110 -79.1176 182° South  Level FlightAware Approximate
Mon 02:55:00 AM 22.1855 -79.1226 182° South  Level FlightAware Approximate
Mon 02:56:00 AM 22.0600 -79.1276 182° South  Level FlightAware Approximate
Mon 02:57:00 AM 21.9346 -79.1327 182° South  Level FlightAware Approximate
Mon 02:58:00 AM 21.8091 -79.1377 182° South  Level FlightAware Approximate
Mon 02:59:00 AM 21.6836 -79.1427 182° South  Level FlightAware Approximate
Mon 03:00:00 AM 21.5581 -79.1477 182° South  Level FlightAware Approximate
Mon 03:01:00 AM 21.4326 -79.1523 182° South  Level FlightAware Approximate
Mon 03:02:00 AM 21.3071 -79.1565 182° South  Level FlightAware Approximate
Mon 03:03:00 AM 21.1816 -79.1607 182° South  Level FlightAware Approximate
Mon 03:04:00 AM 21.0561 -79.1649 182° South  Level FlightAware Approximate
Mon 03:05:00 AM 20.9305 -79.1691 182° South  Level FlightAware Approximate
Mon 03:06:00 AM 20.8050 -79.1733 182° South  Level FlightAware Approximate
Mon 03:07:00 AM 20.6795 -79.1775 182° South  Level FlightAware Approximate
Mon 03:08:00 AM 20.5540 -79.1816 182° South  Level FlightAware Approximate
Mon 03:09:00 AM 20.4285 -79.1858 182° South  Level FlightAware Approximate
Mon 03:10:00 AM 20.3030 -79.1900 182° South  Level FlightAware Approximate
Mon 03:11:00 AM 20.1774 -79.1941 182° South  Level FlightAware Approximate
Mon 03:12:00 AM 20.0519 -79.1983 182° South  Level FlightAware Approximate
Mon 03:13:00 AM 19.9264 -79.2023 182° South  Level FlightAware Approximate
Mon 03:14:00 AM 19.8009 -79.2061 182° South  Level FlightAware Approximate
Mon 03:15:00 AM 19.6754 -79.2100 182° South  Level FlightAware Approximate
Mon 03:16:00 AM 19.5499 -79.2139 182° South  Level FlightAware Approximate
Mon 03:17:00 AM 19.4243 -79.2177 182° South  Level FlightAware Approximate
Mon 03:18:00 AM 19.2988 -79.2216 182° South  Level FlightAware Approximate
Mon 03:19:00 AM 19.1733 -79.2254 182° South  Level FlightAware Approximate
Mon 03:20:00 AM 19.0478 -79.2292 182° South  Level FlightAware Approximate
Mon 03:21:00 AM 18.9223 -79.2331 182° South  Level FlightAware Approximate
Mon 03:22:00 AM 18.7967 -79.2369 182° South  Level FlightAware Approximate
Mon 03:23:00 AM 18.6712 -79.2407 182° South  Level FlightAware Approximate
Mon 03:24:00 AM 18.5457 -79.2445 182° South  Level FlightAware Approximate
Mon 03:25:00 AM 18.4202 -79.2483 182° South  Level FlightAware Approximate
Mon 03:26:00 AM 18.2946 -79.2521 182° South  Level FlightAware Approximate
Mon 03:27:00 AM 18.1691 -79.2559 182° South  Level FlightAware Approximate
Mon 03:28:00 AM 18.0436 -79.2597 182° South  Level FlightAware Approximate
Mon 03:29:00 AM 17.9181 -79.2635 182° South  Level FlightAware Approximate
Mon 03:30:00 AM 17.7926 -79.2673 182° South  Level FlightAware Approximate
Mon 03:31:00 AM 17.6670 -79.2710 182° South  Level FlightAware Approximate
Mon 03:32:00 AM 17.5415 -79.2748 182° South  Level FlightAware Approximate
Mon 03:33:00 AM 17.4160 -79.2785 182° South  Level FlightAware Approximate
Mon 03:34:00 AM 17.2905 -79.2823 182° South  Level FlightAware Approximate
Mon 03:35:00 AM 17.1650 -79.2861 182° South  Level FlightAware Approximate
Mon 03:36:00 AM 17.0394 -79.2898 182° South  Level FlightAware Approximate
Mon 03:37:00 AM 16.9139 -79.2935 182° South  Level FlightAware Approximate
Mon 03:38:00 AM 16.7884 -79.2973 182° South  Level FlightAware Approximate
Mon 03:39:00 AM 16.6629 -79.3010 182° South  Level FlightAware Approximate
Mon 03:40:00 AM 16.5373 -79.3047 182° South  Level FlightAware Approximate
Mon 03:41:00 AM 16.4118 -79.3085 182° South  Level FlightAware Approximate
Mon 03:42:00 AM 16.2863 -79.3122 182° South  Level FlightAware Approximate
Mon 03:43:00 AM 16.1607 -79.3159 182° South  Level FlightAware Approximate
Mon 03:44:00 AM 16.0352 -79.3196 182° South  Level FlightAware Approximate
Mon 03:45:00 AM 15.9097 -79.3233 182° South  Level FlightAware Approximate
Mon 03:46:00 AM 15.7842 -79.3270 182° South  Level FlightAware Approximate
Mon 03:47:00 AM 15.6586 -79.3307 182° South  Level FlightAware Approximate
Mon 03:48:00 AM 15.5331 -79.3344 182° South  Level FlightAware Approximate
Mon 03:49:00 AM 15.4076 -79.3381 182° South  Level FlightAware Approximate
Mon 03:50:00 AM 15.2820 -79.3418 182° South  Level FlightAware Approximate
Mon 03:51:00 AM 15.1565 -79.3454 182° South  Level FlightAware Approximate
Mon 03:52:00 AM 15.0310 -79.3491 182° South  Level FlightAware Approximate
Mon 03:53:00 AM 14.9054 -79.3529 182° South  Level FlightAware Approximate
Mon 03:54:00 AM 14.7799 -79.3567 182° South  Level FlightAware Approximate
Mon 03:55:00 AM 14.6544 -79.3606 182° South  Level FlightAware Approximate
Mon 03:56:00 AM 14.5289 -79.3644 182° South  Level FlightAware Approximate
Mon 03:57:00 AM 14.4033 -79.3682 182° South  Level FlightAware Approximate
Mon 03:58:00 AM 14.2778 -79.3721 182° South  Level FlightAware Approximate
Mon 03:59:00 AM 14.1523 -79.3759 182° South  Level FlightAware Approximate
Mon 04:00:00 AM 14.0268 -79.3797 182° South  Level FlightAware Approximate
Mon 04:01:00 AM 13.9013 -79.3835 182° South  Level FlightAware Approximate
Mon 04:02:00 AM 13.7757 -79.3873 182° South  Level FlightAware Approximate
Mon 04:03:00 AM 13.6502 -79.3912 182° South  Level FlightAware Approximate
Mon 04:04:00 AM 13.5247 -79.3950 182° South  Level FlightAware Approximate
Mon 04:05:00 AM 13.3992 -79.3988 182° South  Level FlightAware Approximate
Mon 04:06:00 AM 13.2737 -79.4025 182° South  Level FlightAware Approximate
Mon 04:07:00 AM 13.1481 -79.4063 182° South  Level FlightAware Approximate
Mon 04:08:00 AM 13.0226 -79.4101 182° South  Level FlightAware Approximate
Mon 04:09:00 AM 12.8971 -79.4139 182° South  Level FlightAware Approximate
Mon 04:10:00 AM 12.7716 -79.4177 182° South  Level FlightAware Approximate
Mon 04:11:00 AM 12.6461 -79.4215 182° South  Level FlightAware Approximate
Mon 04:11:35 AM 12.4240 -79.4190 182° South 447 514 35,000  Level FlightAware ADS-B
Mon 04:12:00 AM 12.5205 -79.4252 182° South  Level FlightAware Approximate
Mon 04:12:05 AM 12.3560 -79.4210 182° South 454 522 35,000  Level FlightAware ADS-B
Mon 04:12:45 AM 12.2730 -79.4240 182° South 454 522 35,000  Level FlightAware ADS-B
Mon 04:13:25 AM 12.1860 -79.4270 182° South 454 522 35,000  Level FlightAware ADS-B
Mon 04:14:00 AM 12.1130 -79.4300 182° South 454 522 35,000  Level FlightAware ADS-B
Mon 04:14:36 AM 12.0390 -79.4320 182° South 454 522 35,000  Level FlightAware ADS-B
Mon 04:15:10 AM 11.9700 -79.4350 182° South 447 514 35,000  Level FlightAware ADS-B
Mon 04:15:45 AM 11.8930 -79.4370 181° South 447 514 35,000  Level FlightAware ADS-B
Mon 04:16:26 AM 11.8080 -79.4400 182° South 448 516 35,000  Level FlightAware ADS-B
Mon 04:17:01 AM 11.7310 -79.4430 182° South 447 514 35,000  Level FlightAware ADS-B
Mon 04:17:36 AM 11.6570 -79.4460 182° South 447 514 35,000  Level FlightAware ADS-B
Mon 04:18:11 AM 11.5830 -79.4480 182° South 448 516 35,000  Level FlightAware ADS-B
Mon 04:18:47 AM 11.5080 -79.4510 182° South 448 516 35,000  Level FlightAware ADS-B
Mon 04:19:22 AM 11.4330 -79.4530 181° South 448 516 35,000  Level FlightAware ADS-B
Mon 04:19:57 AM 11.3590 -79.4560 182° South 448 516 35,000  Level FlightAware ADS-B
Mon 04:20:32 AM 11.2850 -79.4590 182° South 448 516 35,000  Level FlightAware ADS-B
Mon 04:21:07 AM 11.2110 -79.4610 182° South 448 516 35,000  Level FlightAware ADS-B
Mon 04:21:42 AM 11.1360 -79.4640 182° South 448 516 35,000  Level FlightAware ADS-B
Mon 04:22:17 AM 11.0630 -79.4660 182° South 447 514 35,000  Level FlightAware ADS-B
Mon 04:22:52 AM 10.9880 -79.4690 182° South 447 514 35,000  Level FlightAware ADS-B
Mon 04:23:27 AM 10.9150 -79.4710 182° South 447 514 35,000  Level FlightAware ADS-B
Mon 04:24:02 AM 10.8400 -79.4740 182° South 447 514 35,000  Level FlightAware ADS-B
Mon 04:24:37 AM 10.7680 -79.4760 182° South 454 522 35,000  Level FlightAware ADS-B
Mon 04:25:12 AM 10.6930 -79.4790 182° South 454 522 35,000  Level FlightAware ADS-B
Mon 04:25:47 AM 10.6200 -79.4810 182° South 447 514 35,000  Level FlightAware ADS-B
Mon 04:26:22 AM 10.5450 -79.4840 182° South 448 516 35,000  Level FlightAware ADS-B
Mon 04:26:57 AM 10.4720 -79.4860 182° South 449 517 35,000  Level FlightAware ADS-B
Mon 04:27:32 AM 10.3960 -79.4890 182° South 449 517 35,000  Level FlightAware ADS-B
Mon 04:28:07 AM 10.3230 -79.4920 182° South 450 518 35,000  Level FlightAware ADS-B
Mon 04:28:42 AM 10.2480 -79.4940 182° South 450 518 35,000  Level FlightAware ADS-B
Mon 04:29:17 AM 10.1740 -79.4970 182° South 450 518 35,000  Level FlightAware ADS-B
Mon 04:29:52 AM 10.0990 -79.4990 182° South 450 518 35,000  Level FlightAware ADS-B
Mon 04:30:26 AM 10.0260 -79.5020 182° South 450 518 35,000  Level FlightAware ADS-B
Mon 04:31:02 AM 9.9500 -79.5040 181° South 450 518 35,000  Level FlightAware ADS-B
Mon 04:31:37 AM 9.8750 -79.5070 182° South 449 517 35,000  Level FlightAware ADS-B
Mon 04:32:13 AM 9.8000 -79.5100 182° South 449 517 35,000  Level FlightAware ADS-B
Mon 04:32:53 AM 9.7160 -79.5130 182° South 448 516 35,000  Level FlightAware ADS-B
Mon 04:33:33 AM 9.6300 -79.5150 181° South 447 514 35,000  Level FlightAware ADS-B
Mon 04:34:03 AM 9.5660 -79.5180 183° South 454 522 35,000  Level FlightAware ADS-B
Mon 04:34:38 AM 9.4930 -79.5200 182° South 454 522 35,000  Level FlightAware ADS-B
Mon 04:35:13 AM 9.4180 -79.5230 182° South 454 522 35,000  Level FlightAware ADS-B
Mon 04:35:53 AM 9.3370 -79.5250 181° South 454 522 35,000  Level FlightAware ADS-B
Mon 04:36:24 AM 9.2720 -79.5280 183° South 454 522 35,000  Level FlightAware ADS-B
Mon 04:36:58 AM 9.1990 -79.5300 182° South 453 521 35,000  Level FlightAware ADS-B
Mon 04:37:38 AM 9.1140 -79.5330 182° South 453 521 35,000  Level FlightAware ADS-B
Mon 04:38:08 AM 9.0600 -79.5350 182° South 452 520 35,000  Level FlightAware ADS-B
Mon 04:38:51 AM 8.9780 -79.5380 182° South 452 520 35,000  Level FlightAware ADS-B
Mon 04:39:27 AM 8.9140 -79.5400 182° South 452 520 35,000  Level FlightAware ADS-B
Mon 04:40:03 AM 8.8500 -79.5420 182° South 452 520 35,000  Level FlightAware ADS-B
Mon 04:40:37 AM 8.7900 -79.5440 182° South 452 520 35,000  Level FlightAware ADS-B
Mon 04:41:13 AM 8.7260 -79.5470 183° South 452 520 35,000  Level FlightAware ADS-B
Mon 04:41:49 AM 8.6620 -79.5490 182° South 452 520 35,000  Level FlightAware ADS-B
Mon 04:42:25 AM 8.5980 -79.5510 182° South 452 520 35,000  Level FlightAware ADS-B
Mon 04:43:02 AM 8.5320 -79.5540 183° South 452 520 35,000  Level FlightAware ADS-B
Mon 04:43:38 AM 8.4680 -79.5560 182° South 452 520 35,000  Level FlightAware ADS-B
Mon 04:44:14 AM 8.4040 -79.5580 182° South 452 520 35,000  Level FlightAware ADS-B
Mon 04:44:50 AM 8.3400 -79.5600 182° South 452 520 35,000  Level FlightAware ADS-B
Mon 04:45:26 AM 8.2760 -79.5630 183° South 452 520 35,000  Level FlightAware ADS-B
Mon 04:46:02 AM 8.2120 -79.5650 182° South 452 520 35,000  Level FlightAware ADS-B
Mon 04:46:38 AM 8.1480 -79.5670 182° South 452 520 35,000  Level FlightAware ADS-B
Mon 04:47:14 AM 8.0840 -79.5690 182° South 452 520 35,000  Level FlightAware ADS-B
Mon 04:48:01 AM 8.0010 -79.5720 182° South 452 520 35,000  Level FlightAware ADS-B
Mon 04:50:00 AM 7.7520 -79.5789 182° South  Level FlightAware Approximate
Mon 04:51:00 AM 7.6265 -79.5824 182° South  Level FlightAware Approximate
Mon 04:52:00 AM 7.5010 -79.5859 182° South  Level FlightAware Approximate
Mon 04:53:00 AM 7.3755 -79.5894 182° South  Level FlightAware Approximate
Mon 04:54:00 AM 7.2499 -79.5929 182° South  Level FlightAware Approximate
Mon 04:55:00 AM 7.1244 -79.5964 182° South  Level FlightAware Approximate
Mon 04:56:00 AM 6.9989 -79.5999 182° South  Level FlightAware Approximate
Mon 04:57:00 AM 6.8733 -79.6033 182° South  Level FlightAware Approximate
Mon 04:58:00 AM 6.7478 -79.6068 182° South  Level FlightAware Approximate
Mon 04:59:00 AM 6.6223 -79.6103 182° South  Level FlightAware Approximate
Mon 05:00:00 AM 6.4967 -79.6138 182° South  Level FlightAware Approximate
Mon 05:01:00 AM 6.3712 -79.6173 182° South  Level FlightAware Approximate
Mon 05:02:00 AM 6.2457 -79.6207 182° South  Level FlightAware Approximate
Mon 05:03:00 AM 6.1202 -79.6242 182° South  Level FlightAware Approximate
Mon 05:04:00 AM 5.9946 -79.6277 182° South  Level FlightAware Approximate
Mon 05:05:00 AM 5.8691 -79.6311 182° South  Level FlightAware Approximate
Mon 05:06:00 AM 5.7436 -79.6346 182° South  Level FlightAware Approximate
Mon 05:07:00 AM 5.6180 -79.6381 182° South  Level FlightAware Approximate
Mon 05:08:00 AM 5.4925 -79.6415 182° South  Level FlightAware Approximate
Mon 05:09:00 AM 5.3670 -79.6450 182° South  Level FlightAware Approximate
Mon 05:10:00 AM 5.2414 -79.6485 182° South  Level FlightAware Approximate
Mon 05:11:00 AM 5.1159 -79.6519 182° South  Level FlightAware Approximate
Mon 05:12:00 AM 4.9904 -79.6554 182° South  Level FlightAware Approximate
Mon 05:13:00 AM 4.8649 -79.6588 182° South  Level FlightAware Approximate
Mon 05:14:00 AM 4.7393 -79.6623 182° South  Level FlightAware Approximate
Mon 05:15:00 AM 4.6138 -79.6657 182° South  Level FlightAware Approximate
Mon 05:16:00 AM 4.4883 -79.6692 182° South  Level FlightAware Approximate
Mon 05:17:00 AM 4.3627 -79.6726 182° South  Level FlightAware Approximate
Mon 05:18:00 AM 4.2372 -79.6761 182° South  Level FlightAware Approximate
Mon 05:19:00 AM 4.1117 -79.6795 182° South  Level FlightAware Approximate
Mon 05:20:00 AM 3.9861 -79.6830 182° South  Level FlightAware Approximate
Mon 05:21:00 AM 3.8606 -79.6864 182° South  Level FlightAware Approximate
Mon 05:22:00 AM 3.7351 -79.6899 182° South  Level FlightAware Approximate
Mon 05:23:00 AM 3.6095 -79.6933 182° South  Level FlightAware Approximate
Mon 05:24:00 AM 3.4840 -79.6968 182° South  Level FlightAware Approximate
Mon 05:25:00 AM 3.3585 -79.7002 182° South  Level FlightAware Approximate
Mon 05:26:00 AM 3.2330 -79.7037 182° South  Level FlightAware Approximate
Mon 05:27:00 AM 3.1074 -79.7071 182° South  Level FlightAware Approximate
Mon 05:28:00 AM 2.9819 -79.7105 182° South  Level FlightAware Approximate
Mon 05:29:00 AM 2.8564 -79.7140 182° South  Level FlightAware Approximate
Mon 05:30:00 AM 2.7308 -79.7174 182° South  Level FlightAware Approximate
Mon 05:31:00 AM 2.6053 -79.7209 182° South  Level FlightAware Approximate
Mon 05:32:00 AM 2.4798 -79.7243 182° South  Level FlightAware Approximate
Mon 05:33:00 AM 2.3542 -79.7277 182° South  Level FlightAware Approximate
Mon 05:34:00 AM 2.2287 -79.7312 182° South  Level FlightAware Approximate
Mon 05:35:00 AM 2.1032 -79.7346 182° South  Level FlightAware Approximate
Mon 05:36:00 AM 1.9777 -79.7381 182° South  Level FlightAware Approximate
Mon 05:37:00 AM 1.8521 -79.7415 182° South  Level FlightAware Approximate
Mon 05:38:00 AM 1.7266 -79.7449 182° South  Level FlightAware Approximate
Mon 05:39:00 AM 1.6011 -79.7484 182° South  Level FlightAware Approximate
Mon 05:40:00 AM 1.4755 -79.7518 182° South  Level FlightAware Approximate
Mon 05:41:00 AM 1.3500 -79.7552 182° South  Level FlightAware Approximate
Mon 05:42:00 AM 1.2245 -79.7586 182° South  Level FlightAware Approximate
Mon 05:43:00 AM 1.0990 -79.7621 182° South  Level FlightAware Approximate
Mon 05:44:00 AM 0.9734 -79.7655 182° South  Level FlightAware Approximate
Mon 05:45:00 AM 0.8479 -79.7689 182° South  Level FlightAware Approximate
Mon 05:46:00 AM 0.7224 -79.7724 182° South  Level FlightAware Approximate
Mon 05:47:00 AM 0.5968 -79.7758 182° South  Level FlightAware Approximate
Mon 05:48:00 AM 0.4713 -79.7792 182° South  Level FlightAware Approximate
Mon 05:48:45 AM 0.0310 -79.8460 182° South 461 531 35,000  Level FlightAware ADS-B
Mon 05:49:00 AM 0.3458 -79.7827 182° South  Level FlightAware Approximate
Mon 05:49:15 AM -0.0290 -79.8470 181° South 461 531 35,000  Level FlightAware ADS-B
Mon 05:49:55 AM -0.1160 -79.8480 181° South 461 531 35,000  Level FlightAware ADS-B
Mon 05:50:30 AM -0.1920 -79.8480 180° South 461 531 35,000  Level FlightAware ADS-B
Mon 05:51:06 AM -0.2680 -79.8490 181° South 461 531 35,000  Level FlightAware ADS-B
Mon 05:51:41 AM -0.3450 -79.8500 181° South 460 529 35,000  Level FlightAware ADS-B
Mon 05:52:22 AM -0.4230 -79.8510 181° South 460 529 35,000  Level FlightAware ADS-B
Mon 05:53:08 AM -0.5300 -79.8520 181° South 460 529 35,000  Level FlightAware ADS-B
Mon 05:53:38 AM -0.5950 -79.8520 180° South 460 529 35,000  Level FlightAware ADS-B
Mon 05:54:13 AM -0.6680 -79.8530 181° South 460 529 35,000  Level FlightAware ADS-B
Mon 05:54:53 AM -0.7530 -79.8540 181° South 460 529 35,000  Level FlightAware ADS-B
Mon 05:55:28 AM -0.8280 -79.8540 180° South 460 529 35,000  Level FlightAware ADS-B
Mon 05:55:58 AM -0.8930 -79.8550 181° South 460 529 35,000  Level FlightAware ADS-B
Mon 05:56:33 AM -0.9670 -79.8560 181° South 460 529 35,000  Level FlightAware ADS-B
Mon 05:57:13 AM -1.0520 -79.8560 180° South 459 528 35,000  Level FlightAware ADS-B
Mon 05:57:43 AM -1.1180 -79.8570 181° South 459 528 35,000  Level FlightAware ADS-B
Mon 05:58:18 AM -1.1910 -79.8580 181° South 458 527 35,000  Level FlightAware ADS-B
Mon 05:58:58 AM -1.2770 -79.8590 181° South 458 527 35,000  Level FlightAware ADS-B
Mon 05:59:33 AM -1.3510 -79.8590 180° South 458 527 35,000  Level FlightAware ADS-B
Mon 06:00:03 AM -1.4150 -79.8600 181° South 459 528 35,000  Level FlightAware ADS-B
Mon 06:00:38 AM -1.4890 -79.8610 181° South 459 528 35,000  Level FlightAware ADS-B
Mon 06:01:18 AM -1.5740 -79.8620 181° South 459 528 35,000  Level FlightAware ADS-B
Mon 06:01:48 AM -1.6360 -79.8620 180° South 459 528 35,000  Level FlightAware ADS-B
Mon 06:02:28 AM -1.7250 -79.8630 181° South 460 529 35,000  Level FlightAware ADS-B
Mon 06:02:58 AM -1.7860 -79.8640 181° South 460 529 35,000  Level FlightAware ADS-B
Mon 06:03:44 AM -1.8770 -79.8640 180° South 461 531 35,000  Level FlightAware ADS-B
Mon 06:04:15 AM -1.9490 -79.8650 181° South 461 531 35,000 179 Level FlightAware ADS-B
Mon 06:04:51 AM -2.0270 -79.8660 181° South 462 532 35,200 783 Climbing FlightAware ADS-B
Mon 06:05:24 AM -2.0920 -79.8660 180° South 463 533 35,900 1,216 Climbing FlightAware ADS-B
Mon 06:06:05 AM -2.1810 -79.8600 176° South 464 534 36,700 892 Climbing FlightAware ADS-B
Mon 06:06:38 AM -2.2540 -79.8510 173° South 473 544 37,000 277 Climbing FlightAware ADS-B
Mon 06:07:10 AM -2.3220 -79.8420 172° South 481 554 37,000  Level FlightAware ADS-B
Mon 06:07:57 AM -2.4340 -79.8280 173° South 481 554 37,000  Level FlightAware ADS-B
Mon 06:08:28 AM -2.5010 -79.8200 173° South 478 550 37,000  Level FlightAware ADS-B
Mon 06:09:03 AM -2.5790 -79.8100 173° South 476 548 37,000  Level FlightAware ADS-B
Mon 06:09:43 AM -2.6680 -79.7980 172° South 473 544 37,000  Level FlightAware ADS-B
Mon 06:10:13 AM -2.7310 -79.7900 173° South 472 543 37,000  Level FlightAware ADS-B
Mon 06:10:48 AM -2.8080 -79.7810 173° South 471 542 37,000  Level FlightAware ADS-B
Mon 06:11:23 AM -2.8840 -79.7710 173° South 469 540 37,000  Level FlightAware ADS-B
Mon 06:11:59 AM -2.9600 -79.7610 173° South 468 539 37,000  Level FlightAware ADS-B
Mon 06:12:33 AM -3.0360 -79.7520 173° South 467 537 37,000  Level FlightAware ADS-B
Mon 06:13:08 AM -3.1110 -79.7420 172° South 467 537 37,000  Level FlightAware ADS-B
Mon 06:13:43 AM -3.1850 -79.7330 173° South 468 539 37,000  Level FlightAware ADS-B
Mon 06:14:18 AM -3.2600 -79.7240 173° South 468 539 37,000  Level FlightAware ADS-B
Mon 06:14:58 AM -3.3480 -79.7130 173° South 470 541 37,000  Level FlightAware ADS-B
Mon 06:15:28 AM -3.4120 -79.7050 173° South 471 542 37,000  Level FlightAware ADS-B
Mon 06:16:08 AM -3.4990 -79.6930 172° South 472 543 37,000  Level FlightAware ADS-B
Mon 06:16:38 AM -3.5630 -79.6850 173° South 473 544 37,000  Level FlightAware ADS-B
Mon 06:17:13 AM -3.6390 -79.6760 173° South 474 545 37,000  Level FlightAware ADS-B
Mon 06:17:49 AM -3.7180 -79.6660 173° South 475 547 37,000  Level FlightAware ADS-B
Mon 06:18:25 AM -3.7920 -79.6570 173° South 476 548 37,000  Level FlightAware ADS-B
Mon 06:19:03 AM -3.8630 -79.6480 173° South 476 548 37,000  Level FlightAware ADS-B
Mon 06:19:47 AM -3.9600 -79.6350 172° South 476 548 37,000  Level FlightAware ADS-B
Mon 06:20:23 AM -4.0270 -79.6270 173° South 476 548 37,000  Level FlightAware ADS-B
Mon 06:20:59 AM -4.0940 -79.6190 173° South 476 548 37,000  Level FlightAware ADS-B
Mon 06:21:34 AM -4.1590 -79.6110 173° South 476 548 37,000  Level FlightAware ADS-B
Mon 06:22:10 AM -4.2260 -79.6030 173° South 476 548 37,000  Level FlightAware ADS-B
Mon 06:22:46 AM -4.2930 -79.5940 172° South 476 548 37,000  Level FlightAware ADS-B
Mon 06:23:23 AM -4.3620 -79.5860 173° South 476 548 37,000  Level FlightAware ADS-B
Mon 06:23:59 AM -4.4290 -79.5780 173° South 476 548 37,000  Level FlightAware ADS-B
Mon 06:24:35 AM -4.4960 -79.5700 173° South 476 548 37,000  Level FlightAware ADS-B
Mon 06:25:11 AM -4.5620 -79.5610 172° South 476 548 37,000  Level FlightAware ADS-B
Mon 06:25:47 AM -4.6290 -79.5530 173° South 476 548 37,000  Level FlightAware ADS-B
Mon 06:26:23 AM -4.6960 -79.5450 173° South 476 548 37,000  Level FlightAware ADS-B
Mon 06:26:59 AM -4.7630 -79.5370 173° South 476 548 37,000  Level FlightAware ADS-B
Mon 06:27:35 AM -4.8300 -79.5280 172° South 476 548 37,000  Level FlightAware ADS-B
Mon 06:28:11 AM -4.8970 -79.5200 173° South 476 548 37,000  Level FlightAware ADS-B
Mon 06:28:47 AM -4.9640 -79.5120 173° South 476 548 37,000  Level FlightAware ADS-B
Mon 06:31:00 AM -5.2281 -79.4237 162° South  Level Estimated
Mon 06:32:00 AM -5.3472 -79.3839 162° South  Level Estimated
Mon 06:33:00 AM -5.4664 -79.3440 162° South  Level Estimated
Mon 06:34:00 AM -5.5855 -79.3042 162° South  Level Estimated
Mon 06:35:00 AM -5.7047 -79.2643 162° South  Level Estimated
Mon 06:36:00 AM -5.8238 -79.2243 162° South  Level Estimated
Mon 06:37:00 AM -5.9429 -79.1844 162° South  Level Estimated
Mon 06:38:00 AM -6.0621 -79.1445 162° South  Level Estimated
Mon 06:39:00 AM -6.1812 -79.1045 162° South  Level Estimated
Mon 06:40:00 AM -6.3003 -79.0645 162° South  Level Estimated
Mon 06:41:00 AM -6.4194 -79.0245 162° South  Level Estimated
Mon 06:42:00 AM -6.5385 -78.9845 162° South  Level Estimated
Mon 06:43:00 AM -6.6576 -78.9445 162° South  Level Estimated
Mon 06:44:00 AM -6.7768 -78.9044 162° South  Level Estimated
Mon 06:45:00 AM -6.8959 -78.8644 162° South  Level Estimated
Mon 06:46:00 AM -7.0150 -78.8243 162° South  Level Estimated
Mon 06:47:00 AM -7.1341 -78.7842 162° South  Level Estimated
Mon 06:48:00 AM -7.2532 -78.7440 162° South  Level Estimated
Mon 06:49:00 AM -7.3723 -78.7039 162° South  Level Estimated
Mon 06:50:00 AM -7.4914 -78.6637 162° South  Level Estimated
Mon 06:51:00 AM -7.6104 -78.6235 162° South  Level Estimated
Mon 06:52:00 AM -7.7295 -78.5833 161° South  Level Estimated
Mon 06:53:00 AM -7.8486 -78.5430 161° South  Level Estimated
Mon 06:54:00 AM -7.9677 -78.5028 161° South  Level Estimated
Mon 06:55:00 AM -8.0867 -78.4625 161° South  Level Estimated
Mon 06:56:00 AM -8.2058 -78.4221 161° South  Level Estimated
Mon 06:57:00 AM -8.3249 -78.3818 161° South  Level Estimated
Mon 06:58:00 AM -8.4439 -78.3415 161° South  Level Estimated
Mon 06:59:00 AM -8.5630 -78.3011 161° South  Level Estimated
Mon 07:00:00 AM -8.6820 -78.2607 161° South  Level Estimated
Mon 07:01:00 AM -8.8011 -78.2202 161° South  Level Estimated
Mon 07:02:00 AM -8.9201 -78.1797 161° South  Level Estimated
Mon 07:03:00 AM -9.0392 -78.1393 161° South  Level Estimated
Mon 07:04:00 AM -9.1582 -78.0987 161° South  Level Estimated
Mon 07:05:00 AM -9.2772 -78.0582 161° South  Level Estimated
Mon 07:06:00 AM -9.3962 -78.0176 161° South  Level Estimated
Mon 07:07:00 AM -9.5153 -77.9770 161° South  Level Estimated
Mon 07:08:00 AM -9.6343 -77.9364 161° South  Level Estimated
Mon 07:09:00 AM -9.7533 -77.8957 161° South  Level Estimated
Mon 07:10:00 AM -9.8723 -77.8550 161° South  Level Estimated
Mon 07:11:00 AM -9.9913 -77.8143 161° South  Level Estimated
Mon 07:12:00 AM -10.1103 -77.7736 161° South  Level Estimated
Mon 07:13:00 AM -10.2292 -77.7328 161° South  Level Estimated
Mon 07:14:00 AM -10.3482 -77.6920 161° South  Level Estimated
Mon 07:15:00 AM -10.4672 -77.6511 161° South  Level Estimated
Mon 07:16:00 AM -10.5862 -77.6103 161° South  Level Estimated
Mon 07:17:00 AM -10.7051 -77.5694 161° South  Level Estimated
Mon 07:18:00 AM -10.8241 -77.5284 161° South  Level Estimated
Mon 07:19:00 AM -10.9431 -77.4875 161° South  Level Estimated
Mon 07:20:00 AM -11.0620 -77.4465 161° South  Level Estimated
Mon 07:21:00 AM -11.1810 -77.4054 161° South  Level Estimated
Mon 07:22:00 AM -11.2999 -77.3644 161° South  Level Estimated
Mon 07:23:00 AM -11.4188 -77.3233 161° South  Level Estimated
Mon 07:24:00 AM -11.5378 -77.2821 161° South  Level Estimated
Mon 07:25:00 AM -11.6567 -77.2410 161° South  Level Estimated
Mon 07:26:00 AM -11.7756 -77.1998 161° South  Level Estimated
Mon 07:27:00 AM -11.8945 -77.1585 161° South  Level Estimated
Mon 07:28:00 AM -12.0134 -77.1172 161° South  Level Estimated
Mon 07:29:00 AM -12.0219 -77.1143 161° South  Level Estimated
Mon 07:30:00 AM -12.0219 -77.1143 44° Northeast  Level Estimated
Mon 07:31:00 AM -12.0219 -77.1143 44° Northeast  Level Estimated
Mon 07:32:00 AM -12.0219 -77.1143 44° Northeast  Level Estimated
Mon 07:33:00 AM -12.0219 -77.1143 44° Northeast  Level Estimated
Mon 07:34:00 AM -12.0219 -77.1143 44° Northeast  Level Estimated
Mon 07:35:00 AM -12.0219 -77.1143 44° Northeast  Level Estimated
Mon 07:36:00 AM -12.0219 -77.1143 44° Northeast  Level Estimated
Mon 07:37:00 AM -12.0219 -77.1143 44° Northeast  Level Estimated
Mon 07:38:00 AM -12.0219 -77.1143 44° Northeast  Level Estimated
Mon 07:39:00 AM -12.0219 -77.1143 44° Northeast  Level Estimated
Mon 07:40:00 AM -12.0219 -77.1143 44° Northeast  Level Estimated
Mon 07:41:00 AM -12.0219 -77.1143 44° Northeast  Level Estimated
Mon 07:42:00 AM -12.0219 -77.1143 44° Northeast  Level Estimated
Mon 07:43:00 AM -12.0219 -77.1143 44° Northeast  Level Estimated
Mon 07:44:00 AM -12.0219 -77.1143 44° Northeast  Level Estimated

Login

Don't have an account? Register now (free) for customized features, flight alerts, and more!